Hauptseite
METAR-TAF:

METAR-TAF

Flughäfen :

Flughafen Kuwait

Kuwait-Stadt, Kuwait

Breite: 29-13N, Länge: 047-59E, Höhe: 55 m

Beobachtung

Neuester Wetterbericht von vor 24 Minuten, um 05:00 UTC
Wind 12 kt aus Nord/Nordwest
Temperatur 23°C
Luftfeuchtigkeit 73%
Luftdruck 1010 hPa
Sichtweite: 8000 m
Himmel klar

METAR: OKBK 190500Z 34012KT 8000 SKC 23/18 Q1010 NOSIG

Zeit: 08:24 (05:24 UTC)

Prognose

Neuester Wetterbericht von vor 6 Stunden und 39 Minuten, um 22:45 UTC
Gültige Prognose vom 19 um 00 UTC bis 20 um 06 UTC
Wind 10 kt aus Nord/Nordwest, Böen bis zu 22 kt
Sichtweite: 7000 m
Zeitweise
vom 19 um 00 UTC bis 19 um 06 UTC
Wind 3 kt aus unterschiedlichen Richtungen
Zeitweise
vom 19 um 06 UTC bis 19 um 15 UTC
Sichtweite: 3000 m
Staubtreiben

TAF: OKBK 182245Z 1900/2006 33010G22KT 7000 NSC TEMPO 1900/1906 VRB03KT TEMPO 1906/1915 3000 BLDU

Wetterbeobachtungen und Prognosen von mehr als 4000 Flughäfen (METAR und TAF Bericht).

Die verfügbaren Stationen werden durch gelbe und rote Markierungen auf der Karte dargestellt.

Führen Sie die Maus auf sie, um den Namen der Station zu sehen.

Darauf klicken, um die Beobachtung von Wetterbeobachtungen und Prognosen zu sehen.

Um die Karte zu ändern : klicken Sie auf den grünen Tasten mit einem schwarzen Kreuz Zum Vergrößern, auf den grünen Button mit einem Gedankenstrich zu verkleinern, oder auf die grünen Pfeile für benachbarte Karten.


METAR-TAF: